Horizon Consumer — WCHF — position and weather

sailwx.info

Track history (hours):
 
Tides and Currents Weather Stations Pressure Air Temp Water Temp Dewpoint Dewpoint Depression Visibility Wind Speed Wind Dir Waves Ship Positions

Horizon Consumer

Owner: Horizon Lines LLC, RALEIGH, NC. More information available from US FCC via Universal Licensing System and Coast Guard Vessel Documentation Center.

Last reported at 2015-Mar-02 12:00 UTC. Time now 2015-Mar-04 11:21 UTC.
Position N 21°54' W 156°24'.

Type: Cargo ship. MMSI: 368600000.

Wind from 060 at 22 knots

Waves 1.0 meters (3 feet), 8 second period

Barometer 1017.5 mb
Visibility: greater than 10.8 NM

Date/timePositionNaut miles runAvg speedWind from/ knotsBaromVisibWave heightAir tempDewpointWater temp
2015-Mar-02 12:00N 21°54' W 156°24'25921.6 060 / 221017.510.8 1.0
2015-Mar-02 00:00N 24°18' W 152°30'26221.8 060 / 221017.2 5.4 1.023.319.921.1
2015-Mar-01 12:00N 26°36' W 148°24'25221.0 060 / 211019.0 5.4 1.521.118.4
2015-Mar-01 00:00N 28°42' W 144°18'24720.6 120 / 111022.010.8 1.520.516.0
2015-Feb-28 12:00N 30°36' W 140°06'38221.2 090 / 121023.010.8 1.017.2 9.817.2
2015-Feb-27 18:00N 33°18' W 133°18'54820.7 360 / 71025.727.0 1.516.7 5.015.5
2015-Feb-26 15:26N 37°30' W 123°20'1820.0
2015-Feb-26 14:33N 37°36' W 122°60'1818.0
2015-Feb-26 13:34N 37°45' W 122°40'1313.1
2015-Feb-26 12:34N 37°50' W 122°24'4 4.5
2015-Feb-26 11:33N 37°49' W 122°19'0 0.0
2015-Feb-26 10:33N 37°49' W 122°19'0 0.0
2015-Feb-26 09:33N 37°49' W 122°19'0 0.0
2015-Feb-26 08:33N 37°49' W 122°19'0 0.0
2015-Feb-26 07:33N 37°49' W 122°19'0 0.0
2015-Feb-26 06:33N 37°49' W 122°19'0 0.0
2015-Feb-26 05:33N 37°49' W 122°19'0 0.0
2015-Feb-26 04:33N 37°49' W 122°19'0 0.0
2015-Feb-26 03:33N 37°49' W 122°19'0 0.0
2015-Feb-26 02:33N 37°49' W 122°19'0 0.0
2015-Feb-26 01:33N 37°49' W 122°19'0 0.0
2015-Feb-26 00:33N 37°49' W 122°19'0 0.0
2015-Feb-25 23:33N 37°49' W 122°19'0 0.0
2015-Feb-25 22:33N 37°49' W 122°19'0 0.0
2015-Feb-25 21:33N 37°49' W 122°19'0 0.0
2015-Feb-25 20:30N 37°49' W 122°19'0 0.0
2015-Feb-25 19:33N 37°49' W 122°19'0 0.0
2015-Feb-25 18:33N 37°49' W 122°19'0 0.0
2015-Feb-25 17:33N 37°49' W 122°19'0 0.0
2015-Feb-25 16:33N 37°49' W 122°19'0 0.0
2015-Feb-25 15:33N 37°49' W 122°19'0 0.0
2015-Feb-25 14:34N 37°49' W 122°19'1 1.2
2015-Feb-25 13:33N 37°49' W 122°20'1111.0
2015-Feb-25 12:33N 37°47' W 122°34'1110.7
2015-Feb-25 11:33N 37°47' W 122°48'1010.1
2015-Feb-25 10:33N 37°52' W 122°59'1010.3
2015-Feb-25 09:33N 37°57' W 123°10'1010.2
2015-Feb-25 08:33N 38°05' W 123°19'1010.4
2015-Feb-25 07:33N 38°12' W 123°28'1110.5
2015-Feb-25 06:33N 38°19' W 123°37'1010.5
2015-Feb-25 05:33N 38°27' W 123°47'9 9.2
2015-Feb-25 04:33N 38°33' W 123°55'10 9.1
2015-Feb-25 03:27N 38°41' W 124°04'3 3.0
2015-Feb-25 02:33N 38°38' W 124°03'2 1.5
2015-Feb-25 01:33N 38°40' W 124°03'9 8.7
2015-Feb-25 00:33N 38°46' W 124°11'6 6.4
2015-Feb-24 23:33N 38°51' W 124°16'7 7.4
2015-Feb-24 22:33N 38°45' W 124°10'7 7.3
2015-Feb-24 21:33N 38°40' W 124°03'7 7.4
2015-Feb-24 20:33N 38°34' W 123°57'8 7.7
2015-Feb-24 19:33N 38°29' W 123°50'8 8.1
2015-Feb-24 18:33N 38°23' W 123°43'8 7.9
2015-Feb-24 17:33N 38°17' W 123°36'5 4.9
2015-Feb-24 16:33N 38°14' W 123°31'10 9.5
2015-Feb-24 15:33N 38°21' W 123°40'10 9.6
2015-Feb-24 14:33N 38°28' W 123°48'10 9.8
2015-Feb-24 13:33N 38°35' W 123°57'20 9.8
2015-Feb-24 11:33N 38°49' W 124°14'10 9.6
2015-Feb-24 10:33N 38°56' W 124°23'10 9.8
2015-Feb-24 09:33N 39°05' W 124°28'54012.5
2015-Feb-22 14:19N 48°04' W 125°17'1215.6
2015-Feb-22 13:31N 48°16' W 125°12'1514.8
2015-Feb-22 12:29N 48°30' W 125°01'2914.8
2015-Feb-22 10:33N 48°23' W 124°19'1515.4
2015-Feb-22 09:33N 48°17' W 123°58'1716.9
2015-Feb-22 08:34N 48°15' W 123°33'1313.2
2015-Feb-22 07:33N 48°11' W 123°14'2019.6
2015-Feb-22 06:31N 48°10' W 122°44'2020.2
2015-Feb-22 05:34N 47°53' W 122°28'1818.5
2015-Feb-22 04:33N 47°35' W 122°26'1414.4
2015-Feb-22 03:34N 47°20' W 122°25'4 4.3
2015-Feb-22 02:33N 47°16' W 122°25'0 0.0
2015-Feb-22 01:33N 47°16' W 122°25'0 0.0
2015-Feb-22 00:20N 47°16' W 122°25'0 0.0
2015-Feb-21 23:26N 47°16' W 122°25'0 0.0
2015-Feb-21 22:26N 47°16' W 122°25'0 0.0
2015-Feb-21 21:32N 47°16' W 122°25'0 0.0
2015-Feb-21 20:32N 47°16' W 122°25'0 0.0
2015-Feb-21 19:32N 47°16' W 122°25'0 0.0
2015-Feb-21 18:29N 47°16' W 122°25'0 0.0
2015-Feb-21 17:29N 47°16' W 122°25'0 0.0
2015-Feb-21 16:32N 47°16' W 122°25'0 0.0
2015-Feb-21 15:32N 47°16' W 122°25'0 0.0
2015-Feb-21 14:32N 47°16' W 122°25'0 0.0
2015-Feb-21 13:32N 47°16' W 122°25'0 0.0
2015-Feb-21 12:32N 47°16' W 122°25'0 0.0
2015-Feb-21 11:32N 47°16' W 122°25'0 0.0
2015-Feb-21 10:32N 47°16' W 122°25'0 0.0
2015-Feb-21 09:32N 47°16' W 122°25'0 0.0
2015-Feb-21 08:32N 47°16' W 122°25'0 0.0
2015-Feb-21 07:29N 47°16' W 122°25'0 0.0
2015-Feb-21 06:29N 47°16' W 122°25'0 0.0
2015-Feb-21 05:32N 47°16' W 122°25'0 0.0
2015-Feb-21 04:32N 47°16' W 122°25'0 0.0
2015-Feb-21 03:32N 47°16' W 122°25'0 0.0
2015-Feb-21 02:32N 47°16' W 122°25'0 0.0
2015-Feb-21 00:08N 47°16' W 122°25'0 0.0
2015-Feb-20 23:32N 47°16' W 122°25'0 0.0
2015-Feb-20 22:26N 47°16' W 122°25'0 0.0
2015-Feb-20 21:32N 47°16' W 122°25'0 0.0
2015-Feb-20 20:32N 47°16' W 122°25'0 0.0
2015-Feb-20 19:26N 47°16' W 122°25'0 0.0
2015-Feb-20 16:17N 47°16' W 122°25'0 0.0
2015-Feb-20 15:11N 47°16' W 122°25'0 0.0
2015-Feb-20 14:32N 47°16' W 122°25'0 0.0
2015-Feb-20 13:32N 47°16' W 122°25'0 0.0
2015-Feb-20 12:32N 47°16' W 122°25'  
Track history (hours):
 
Tides and Currents Weather Stations Pressure Air Temp Water Temp Dewpoint Dewpoint Depression Visibility Wind Speed Wind Dir Waves Ship Positions

Horizon Consumer

Owner: Horizon Lines LLC, RALEIGH, NC. More information available from US FCC via Universal Licensing System and Coast Guard Vessel Documentation Center.

Last reported at 2015-Mar-02 12:00 UTC. Time now 2015-Mar-04 11:21 UTC.
Position N 21°54' W 156°24'.

Type: Cargo ship. MMSI: 368600000.

Wind from 060 at 22 knots

Waves 1.0 meters (3 feet), 8 second period

Barometer 1017.5 mb
Visibility: greater than 10.8 NM

Date/timePositionNaut miles runAvg speedWind from/ knotsBaromVisibWave heightAir tempDewpointWater temp
2015-Mar-02 12:00N 21°54' W 156°24'25921.6 060 / 221017.510.8 1.0
2015-Mar-02 00:00N 24°18' W 152°30'26221.8 060 / 221017.2 5.4 1.023.319.921.1
2015-Mar-01 12:00N 26°36' W 148°24'25221.0 060 / 211019.0 5.4 1.521.118.4
2015-Mar-01 00:00N 28°42' W 144°18'24720.6 120 / 111022.010.8 1.520.516.0
2015-Feb-28 12:00N 30°36' W 140°06'38221.2 090 / 121023.010.8 1.017.2 9.817.2
2015-Feb-27 18:00N 33°18' W 133°18'54820.7 360 / 71025.727.0 1.516.7 5.015.5
2015-Feb-26 15:26N 37°30' W 123°20'1820.0
2015-Feb-26 14:33N 37°36' W 122°60'1818.0
2015-Feb-26 13:34N 37°45' W 122°40'1313.1
2015-Feb-26 12:34N 37°50' W 122°24'4 4.5
2015-Feb-26 11:33N 37°49' W 122°19'0 0.0
2015-Feb-26 10:33N 37°49' W 122°19'0 0.0
2015-Feb-26 09:33N 37°49' W 122°19'0 0.0
2015-Feb-26 08:33N 37°49' W 122°19'0 0.0
2015-Feb-26 07:33N 37°49' W 122°19'0 0.0
2015-Feb-26 06:33N 37°49' W 122°19'0 0.0
2015-Feb-26 05:33N 37°49' W 122°19'0 0.0
2015-Feb-26 04:33N 37°49' W 122°19'0 0.0
2015-Feb-26 03:33N 37°49' W 122°19'0 0.0
2015-Feb-26 02:33N 37°49' W 122°19'0 0.0
2015-Feb-26 01:33N 37°49' W 122°19'0 0.0
2015-Feb-26 00:33N 37°49' W 122°19'0 0.0
2015-Feb-25 23:33N 37°49' W 122°19'0 0.0
2015-Feb-25 22:33N 37°49' W 122°19'0 0.0
2015-Feb-25 21:33N 37°49' W 122°19'0 0.0
2015-Feb-25 20:30N 37°49' W 122°19'0 0.0
2015-Feb-25 19:33N 37°49' W 122°19'0 0.0
2015-Feb-25 18:33N 37°49' W 122°19'0 0.0
2015-Feb-25 17:33N 37°49' W 122°19'0 0.0
2015-Feb-25 16:33N 37°49' W 122°19'0 0.0
2015-Feb-25 15:33N 37°49' W 122°19'0 0.0
2015-Feb-25 14:34N 37°49' W 122°19'1 1.2
2015-Feb-25 13:33N 37°49' W 122°20'1111.0
2015-Feb-25 12:33N 37°47' W 122°34'1110.7
2015-Feb-25 11:33N 37°47' W 122°48'1010.1
2015-Feb-25 10:33N 37°52' W 122°59'1010.3
2015-Feb-25 09:33N 37°57' W 123°10'1010.2
2015-Feb-25 08:33N 38°05' W 123°19'1010.4
2015-Feb-25 07:33N 38°12' W 123°28'1110.5
2015-Feb-25 06:33N 38°19' W 123°37'1010.5
2015-Feb-25 05:33N 38°27' W 123°47'9 9.2
2015-Feb-25 04:33N 38°33' W 123°55'10 9.1
2015-Feb-25 03:27N 38°41' W 124°04'3 3.0
2015-Feb-25 02:33N 38°38' W 124°03'2 1.5
2015-Feb-25 01:33N 38°40' W 124°03'9 8.7
2015-Feb-25 00:33N 38°46' W 124°11'6 6.4
2015-Feb-24 23:33N 38°51' W 124°16'7 7.4
2015-Feb-24 22:33N 38°45' W 124°10'7 7.3
2015-Feb-24 21:33N 38°40' W 124°03'7 7.4
2015-Feb-24 20:33N 38°34' W 123°57'8 7.7
2015-Feb-24 19:33N 38°29' W 123°50'8 8.1
2015-Feb-24 18:33N 38°23' W 123°43'8 7.9
2015-Feb-24 17:33N 38°17' W 123°36'5 4.9
2015-Feb-24 16:33N 38°14' W 123°31'10 9.5
2015-Feb-24 15:33N 38°21' W 123°40'10 9.6
2015-Feb-24 14:33N 38°28' W 123°48'10 9.8
2015-Feb-24 13:33N 38°35' W 123°57'20 9.8
2015-Feb-24 11:33N 38°49' W 124°14'10 9.6
2015-Feb-24 10:33N 38°56' W 124°23'10 9.8
2015-Feb-24 09:33N 39°05' W 124°28'54012.5
2015-Feb-22 14:19N 48°04' W 125°17'1215.6
2015-Feb-22 13:31N 48°16' W 125°12'1514.8
2015-Feb-22 12:29N 48°30' W 125°01'2914.8
2015-Feb-22 10:33N 48°23' W 124°19'1515.4
2015-Feb-22 09:33N 48°17' W 123°58'1716.9
2015-Feb-22 08:34N 48°15' W 123°33'1313.2
2015-Feb-22 07:33N 48°11' W 123°14'2019.6
2015-Feb-22 06:31N 48°10' W 122°44'2020.2
2015-Feb-22 05:34N 47°53' W 122°28'1818.5
2015-Feb-22 04:33N 47°35' W 122°26'1414.4
2015-Feb-22 03:34N 47°20' W 122°25'4 4.3
2015-Feb-22 02:33N 47°16' W 122°25'0 0.0
2015-Feb-22 01:33N 47°16' W 122°25'0 0.0
2015-Feb-22 00:20N 47°16' W 122°25'0 0.0
2015-Feb-21 23:26N 47°16' W 122°25'0 0.0
2015-Feb-21 22:26N 47°16' W 122°25'0 0.0
2015-Feb-21 21:32N 47°16' W 122°25'0 0.0
2015-Feb-21 20:32N 47°16' W 122°25'0 0.0
2015-Feb-21 19:32N 47°16' W 122°25'0 0.0
2015-Feb-21 18:29N 47°16' W 122°25'0 0.0
2015-Feb-21 17:29N 47°16' W 122°25'0 0.0
2015-Feb-21 16:32N 47°16' W 122°25'0 0.0
2015-Feb-21 15:32N 47°16' W 122°25'0 0.0
2015-Feb-21 14:32N 47°16' W 122°25'0 0.0
2015-Feb-21 13:32N 47°16' W 122°25'0 0.0
2015-Feb-21 12:32N 47°16' W 122°25'0 0.0
2015-Feb-21 11:32N 47°16' W 122°25'0 0.0
2015-Feb-21 10:32N 47°16' W 122°25'0 0.0
2015-Feb-21 09:32N 47°16' W 122°25'0 0.0
2015-Feb-21 08:32N 47°16' W 122°25'0 0.0
2015-Feb-21 07:29N 47°16' W 122°25'0 0.0
2015-Feb-21 06:29N 47°16' W 122°25'0 0.0
2015-Feb-21 05:32N 47°16' W 122°25'0 0.0
2015-Feb-21 04:32N 47°16' W 122°25'0 0.0
2015-Feb-21 03:32N 47°16' W 122°25'0 0.0
2015-Feb-21 02:32N 47°16' W 122°25'0 0.0
2015-Feb-21 00:08N 47°16' W 122°25'0 0.0
2015-Feb-20 23:32N 47°16' W 122°25'0 0.0
2015-Feb-20 22:26N 47°16' W 122°25'0 0.0
2015-Feb-20 21:32N 47°16' W 122°25'0 0.0
2015-Feb-20 20:32N 47°16' W 122°25'0 0.0
2015-Feb-20 19:26N 47°16' W 122°25'0 0.0
2015-Feb-20 16:17N 47°16' W 122°25'0 0.0
2015-Feb-20 15:11N 47°16' W 122°25'0 0.0
2015-Feb-20 14:32N 47°16' W 122°25'0 0.0
2015-Feb-20 13:32N 47°16' W 122°25'0 0.0
2015-Feb-20 12:32N 47°16' W 122°25'  

Dump ship's entire track history